createdAt,value
2023-05-01T00:01:55.035Z,85.39
2023-05-01T00:04:22.528Z,85.88
2023-05-01T00:06:49.374Z,86.59
2023-05-01T00:09:16.213Z,86.55
2023-05-01T00:11:42.791Z,86.18
2023-05-01T00:14:09.541Z,86.46
2023-05-01T00:16:36.592Z,86.68
2023-05-01T00:19:04.884Z,86.62
2023-05-01T00:21:31.412Z,86.54
2023-05-01T00:23:58.531Z,86.81
2023-05-01T00:26:29.709Z,87.12
2023-05-01T00:28:56.312Z,87.55
2023-05-01T00:31:25.519Z,87.29
2023-05-01T00:33:52.392Z,87.27
2023-05-01T00:36:19.133Z,87.32
2023-05-01T00:38:46.327Z,88.19
2023-05-01T00:41:12.917Z,88.27
2023-05-01T00:43:39.795Z,88.71
2023-05-01T00:46:08.129Z,88.19
2023-05-01T00:48:35.337Z,88.41
2023-05-01T00:51:05.947Z,88.42
2023-05-01T00:53:33.733Z,88.82
2023-05-01T00:56:00.909Z,88.82
2023-05-01T00:58:27.718Z,88.78
2023-05-01T01:00:55.151Z,89.20
2023-05-01T01:03:21.806Z,88.99
2023-05-01T01:05:56.806Z,89.07
2023-05-01T01:08:43.403Z,89.36
2023-05-01T01:11:34.197Z,89.40
2023-05-01T01:14:11.692Z,89.49
2023-05-01T01:17:09.064Z,89.63
2023-05-01T01:19:41.835Z,89.76
2023-05-01T01:22:13.429Z,89.82
2023-05-01T01:25:06.395Z,89.90
2023-05-01T01:27:47.401Z,90.39
2023-05-01T01:30:56.708Z,90.14
2023-05-01T01:33:41.827Z,90.17
2023-05-01T01:36:13.923Z,89.91
2023-05-01T01:38:44.075Z,90.00
2023-05-01T01:41:17.901Z,90.24
2023-05-01T01:43:50.627Z,90.20
2023-05-01T01:46:17.928Z,90.34
2023-05-01T01:48:48.047Z,90.28
2023-05-01T01:51:18.463Z,90.50
2023-05-01T01:53:50.388Z,90.61
2023-05-01T01:56:19.899Z,90.83
2023-05-01T01:58:48.240Z,90.51
2023-05-01T02:01:16.337Z,90.49
2023-05-01T02:03:45.983Z,90.34
2023-05-01T02:06:14.438Z,90.69
2023-05-01T02:08:42.508Z,91.15
2023-05-01T02:11:11.204Z,91.11
2023-05-01T02:13:39.002Z,91.07
2023-05-01T02:16:08.331Z,91.00
2023-05-01T02:18:36.739Z,91.50
2023-05-01T02:21:05.108Z,91.30
2023-05-01T02:23:33.465Z,91.23
2023-05-01T02:26:03.835Z,91.22
2023-05-01T02:28:31.361Z,91.29
2023-05-01T02:30:59.051Z,91.59
2023-05-01T02:33:25.971Z,91.82
2023-05-01T02:35:52.532Z,91.79
2023-05-01T02:38:19.257Z,91.99
2023-05-01T02:40:52.090Z,91.94
2023-05-01T02:43:21.190Z,91.79
2023-05-01T02:45:49.323Z,93.13
2023-05-01T02:48:23.582Z,92.44
2023-05-01T02:50:51.527Z,92.19
2023-05-01T02:53:18.813Z,92.21
2023-05-01T02:55:45.544Z,92.44
2023-05-01T02:58:16.854Z,92.70
2023-05-01T03:00:44.622Z,92.66
2023-05-01T03:03:12.088Z,92.67
2023-05-01T03:05:41.061Z,92.64
2023-05-01T03:08:07.906Z,92.75
2023-05-01T03:10:34.552Z,93.15
2023-05-01T03:13:01.450Z,93.40
2023-05-01T03:15:28.134Z,93.33
2023-05-01T03:17:54.894Z,93.40
2023-05-01T03:20:21.519Z,93.35
2023-05-01T03:22:48.133Z,93.42
2023-05-01T03:25:15.414Z,93.52
2023-05-01T03:27:42.452Z,93.56
2023-05-01T03:30:10.098Z,93.61
2023-05-01T03:32:37.108Z,93.38
2023-05-01T03:35:04.040Z,93.26
2023-05-01T03:37:31.083Z,93.41
2023-05-01T03:39:57.972Z,93.35
2023-05-01T03:42:24.685Z,93.67
2023-05-01T03:44:51.420Z,93.68
2023-05-01T03:47:19.194Z,93.71
2023-05-01T03:49:46.269Z,93.73
2023-05-01T03:52:13.138Z,93.64
2023-05-01T03:54:39.938Z,93.72
2023-05-01T03:57:06.957Z,93.69
2023-05-01T03:59:33.529Z,93.55
2023-05-01T04:02:00.227Z,93.67
2023-05-01T04:04:27.178Z,93.39
2023-05-01T04:06:53.802Z,93.17
2023-05-01T04:09:20.407Z,93.40
2023-05-01T04:11:47.148Z,93.42
2023-05-01T04:14:13.762Z,93.41
2023-05-01T04:16:40.709Z,92.80
2023-05-01T04:19:07.695Z,93.09
2023-05-01T04:21:34.896Z,92.35
2023-05-01T04:24:01.504Z,91.62
2023-05-01T04:26:28.184Z,90.31
2023-05-01T04:28:54.919Z,90.13
2023-05-01T04:31:21.515Z,88.83
2023-05-01T04:33:48.206Z,87.08
2023-05-01T04:36:14.881Z,86.70
2023-05-01T04:38:41.469Z,84.48
2023-05-01T04:41:08.045Z,84.04
2023-05-01T04:43:34.606Z,83.01
2023-05-01T04:46:01.275Z,82.07
2023-05-01T04:48:27.805Z,82.22
2023-05-01T04:50:55.328Z,81.20
2023-05-01T04:53:21.927Z,80.95
2023-05-01T04:55:48.525Z,80.06
2023-05-01T04:58:15.089Z,79.73
2023-05-01T05:00:41.681Z,79.04
2023-05-01T05:03:08.338Z,78.73
2023-05-01T05:05:35.434Z,78.69
2023-05-01T05:08:02.998Z,77.83
2023-05-01T05:10:29.635Z,77.70
2023-05-01T05:12:56.821Z,77.38
2023-05-01T05:15:23.430Z,76.51
2023-05-01T05:17:50.120Z,76.05
2023-05-01T05:20:16.780Z,75.90
2023-05-01T05:22:43.357Z,75.57
2023-05-01T05:25:10.048Z,74.84
2023-05-01T05:27:38.116Z,74.02
2023-05-01T05:30:05.962Z,73.59
2023-05-01T05:32:33.538Z,73.10
2023-05-01T05:35:00.334Z,73.13
2023-05-01T05:37:26.974Z,72.38
2023-05-01T05:39:53.925Z,71.86
2023-05-01T05:42:20.699Z,69.60
2023-05-01T05:44:47.309Z,65.29
2023-05-01T05:47:13.809Z,61.81
2023-05-01T05:49:40.793Z,58.86
2023-05-01T05:52:07.312Z,56.48
2023-05-01T05:54:33.856Z,54.84
2023-05-01T05:57:00.516Z,54.07
2023-05-01T05:59:27.553Z,52.80
2023-05-01T06:01:54.128Z,51.40
2023-05-01T06:04:20.736Z,50.92
2023-05-01T06:06:48.473Z,50.12
2023-05-01T06:09:16.103Z,49.48
2023-05-01T06:11:42.905Z,47.30
2023-05-01T06:14:09.523Z,47.13
2023-05-01T06:16:36.233Z,46.59
2023-05-01T06:19:02.846Z,45.74
2023-05-01T06:21:29.484Z,43.40
2023-05-01T06:23:56.033Z,42.19
2023-05-01T06:26:23.196Z,41.00
2023-05-01T06:28:49.801Z,38.71
2023-05-01T06:31:16.326Z,38.61
2023-05-01T06:33:42.902Z,37.53
2023-05-01T06:36:09.738Z,38.81
2023-05-01T06:38:36.288Z,37.53
2023-05-01T06:41:05.036Z,39.24
2023-05-01T06:43:31.752Z,39.99
2023-05-01T06:45:59.577Z,39.65
2023-05-01T06:48:26.240Z,38.62
2023-05-01T06:50:52.884Z,37.89
2023-05-01T06:53:19.517Z,37.08
2023-05-01T06:55:46.163Z,36.00
2023-05-01T06:58:23.539Z,36.65
2023-05-01T07:00:51.004Z,35.35
2023-05-01T07:03:17.675Z,35.46
2023-05-01T07:05:44.587Z,34.70
2023-05-01T07:08:11.226Z,35.51
2023-05-01T07:10:39.304Z,35.44
2023-05-01T07:13:08.229Z,35.26
2023-05-01T07:15:34.806Z,35.04
2023-05-01T07:18:03.167Z,35.42
2023-05-01T07:20:30.537Z,36.24
2023-05-01T07:22:57.068Z,35.96
2023-05-01T07:25:25.015Z,36.35
2023-05-01T07:27:51.541Z,35.88
2023-05-01T07:30:18.196Z,33.96
2023-05-01T07:32:45.108Z,32.69
2023-05-01T07:35:11.790Z,34.65
2023-05-01T07:37:38.418Z,32.22
2023-05-01T07:40:05.540Z,31.88
2023-05-01T07:42:32.185Z,30.88
2023-05-01T07:44:58.732Z,33.17
2023-05-01T07:47:26.265Z,31.95
2023-05-01T07:49:52.851Z,31.74
2023-05-01T07:52:19.474Z,34.68
2023-05-01T07:54:50.333Z,32.71
2023-05-01T07:57:16.922Z,33.30
2023-05-01T07:59:43.540Z,31.07
2023-05-01T08:02:10.317Z,32.48
2023-05-01T08:04:37.151Z,32.99
2023-05-01T08:07:04.351Z,32.50
2023-05-01T08:09:31.155Z,31.71
2023-05-01T08:11:57.710Z,31.05
2023-05-01T08:14:24.452Z,30.51
2023-05-01T08:16:55.348Z,30.65
2023-05-01T08:19:23.127Z,30.72
2023-05-01T08:21:50.017Z,31.45
2023-05-01T08:24:17.107Z,29.69
2023-05-01T08:26:43.740Z,29.00
2023-05-01T08:29:10.663Z,29.60
2023-05-01T08:31:39.175Z,30.68
2023-05-01T08:34:06.246Z,30.40
2023-05-01T08:36:33.028Z,31.46
2023-05-01T08:38:59.742Z,31.75
2023-05-01T08:41:28.631Z,30.95
2023-05-01T08:43:57.497Z,29.93
2023-05-01T08:46:33.794Z,28.37
2023-05-01T08:49:02.446Z,28.19
2023-05-01T08:51:31.230Z,27.79
2023-05-01T08:53:59.880Z,28.22
2023-05-01T08:56:26.715Z,27.51
2023-05-01T08:58:55.686Z,28.21
2023-05-01T09:01:23.191Z,28.94
2023-05-01T09:03:52.078Z,28.62
2023-05-01T09:06:19.908Z,27.81
2023-05-01T09:08:46.547Z,29.35
2023-05-01T09:11:13.164Z,27.30
2023-05-01T09:13:39.910Z,27.49
2023-05-01T09:16:07.555Z,25.25
2023-05-01T09:18:34.978Z,27.22
2023-05-01T09:21:02.126Z,25.29
2023-05-01T09:23:29.390Z,26.51
2023-05-01T09:25:57.511Z,26.06
2023-05-01T09:28:47.338Z,27.00
2023-05-01T09:31:25.186Z,25.54
2023-05-01T09:34:03.028Z,25.87
2023-05-01T09:36:32.446Z,26.05
2023-05-01T09:39:03.798Z,23.79
2023-05-01T09:41:33.880Z,24.79
2023-05-01T09:44:01.468Z,24.27
2023-05-01T09:46:28.196Z,24.01
2023-05-01T09:48:59.850Z,23.62
2023-05-01T09:51:31.881Z,26.27
2023-05-01T09:54:02.467Z,24.95
2023-05-01T09:56:34.025Z,25.51
2023-05-01T09:59:20.238Z,24.49
2023-05-01T10:01:52.162Z,25.94
2023-05-01T10:04:29.928Z,25.68
2023-05-01T10:06:57.077Z,26.19
2023-05-01T10:09:28.566Z,24.21
2023-05-01T10:11:57.748Z,24.83
2023-05-01T10:14:26.621Z,25.61
2023-05-01T10:16:53.616Z,24.92
2023-05-01T10:19:21.288Z,24.07
2023-05-01T10:21:47.921Z,26.55
2023-05-01T10:24:16.850Z,25.28
2023-05-01T10:26:44.010Z,23.60
2023-05-01T10:29:12.032Z,24.65
2023-05-01T10:31:39.434Z,22.56
2023-05-01T10:34:08.287Z,22.64
2023-05-01T10:36:42.958Z,24.43
2023-05-01T10:39:35.037Z,23.84
2023-05-01T10:42:06.558Z,24.39
2023-05-01T10:44:35.031Z,24.30
2023-05-01T10:47:25.128Z,23.72
2023-05-01T10:50:17.788Z,24.54
2023-05-01T10:53:12.568Z,25.62
2023-05-01T10:55:42.909Z,23.35
2023-05-01T10:58:15.068Z,22.45
2023-05-01T11:00:42.269Z,23.04
2023-05-01T11:03:20.994Z,22.52
2023-05-01T11:05:59.915Z,22.45
2023-05-01T11:08:34.278Z,21.13
2023-05-01T11:11:27.512Z,22.59
2023-05-01T11:14:08.576Z,22.21
2023-05-01T11:16:38.528Z,23.64
2023-05-01T11:19:28.334Z,23.52
2023-05-01T11:21:57.044Z,23.17
2023-05-01T11:24:32.895Z,23.81
2023-05-01T11:27:00.146Z,25.86
2023-05-01T11:29:32.668Z,26.46
2023-05-01T11:32:00.780Z,27.17
2023-05-01T11:34:28.037Z,28.54
2023-05-01T11:36:54.721Z,26.67
2023-05-01T11:39:22.090Z,27.00
2023-05-01T11:41:48.830Z,26.95
2023-05-01T11:44:17.449Z,27.19
2023-05-01T11:46:44.452Z,25.37
2023-05-01T11:49:11.488Z,25.97
2023-05-01T11:51:38.331Z,26.51
2023-05-01T11:54:05.687Z,24.98
2023-05-01T11:56:33.581Z,26.61
2023-05-01T11:59:13.935Z,24.99
2023-05-01T12:01:41.949Z,25.86
2023-05-01T12:04:08.728Z,26.98
2023-05-01T12:06:45.726Z,25.15
2023-05-01T12:09:26.845Z,24.00
2023-05-01T12:11:53.993Z,24.27
2023-05-01T12:14:22.031Z,25.90
2023-05-01T12:16:49.440Z,26.99
2023-05-01T12:19:18.136Z,26.05
2023-05-01T12:21:44.792Z,25.90
2023-05-01T12:24:12.971Z,27.30
2023-05-01T12:26:40.048Z,26.46
2023-05-01T12:29:11.558Z,26.52
2023-05-01T12:31:47.279Z,26.67
2023-05-01T12:34:13.992Z,25.30
2023-05-01T12:36:40.737Z,26.02
2023-05-01T12:39:09.670Z,26.56
2023-05-01T12:41:49.582Z,27.53
2023-05-01T12:44:24.275Z,26.35
2023-05-01T12:46:56.422Z,27.72
2023-05-01T12:49:24.073Z,26.86
2023-05-01T12:51:52.638Z,25.45
2023-05-01T12:54:29.328Z,26.09
2023-05-01T12:57:15.622Z,25.01
2023-05-01T12:59:46.636Z,27.57
2023-05-01T13:02:15.944Z,26.54
2023-05-01T13:04:49.407Z,25.55
2023-05-01T13:07:18.367Z,26.24
2023-05-01T13:09:57.730Z,26.78
2023-05-01T13:12:25.558Z,26.14
2023-05-01T13:14:52.831Z,29.57
2023-05-01T13:17:26.501Z,28.48
2023-05-01T13:19:57.610Z,27.48
2023-05-01T13:22:30.627Z,27.38
2023-05-01T13:24:57.478Z,27.01
2023-05-01T13:27:24.304Z,27.38
2023-05-01T13:29:58.468Z,26.31
2023-05-01T13:32:26.329Z,28.25
2023-05-01T13:34:56.032Z,28.84
2023-05-01T13:37:23.041Z,30.04
2023-05-01T13:39:49.705Z,29.68
2023-05-01T13:42:25.715Z,30.53
2023-05-01T13:44:55.964Z,30.54
2023-05-01T13:47:26.646Z,30.00
2023-05-01T13:49:53.959Z,29.12
2023-05-01T13:52:20.998Z,30.93
2023-05-01T13:54:48.465Z,29.50
2023-05-01T13:57:17.157Z,30.83
2023-05-01T13:59:46.934Z,29.26
2023-05-01T14:02:29.578Z,29.92
2023-05-01T14:04:58.587Z,29.40
2023-05-01T14:07:27.500Z,29.73
2023-05-01T14:09:58.047Z,29.90
2023-05-01T14:12:28.209Z,30.47
2023-05-01T14:14:54.947Z,31.41
2023-05-01T14:17:32.669Z,29.81
2023-05-01T14:19:59.364Z,31.21
2023-05-01T14:22:29.844Z,30.39
2023-05-01T14:24:58.649Z,31.89
2023-05-01T14:27:25.641Z,32.74
2023-05-01T14:29:52.168Z,31.45
2023-05-01T14:32:18.816Z,31.93
2023-05-01T14:34:46.070Z,31.41
2023-05-01T14:37:15.108Z,31.78
2023-05-01T14:39:41.915Z,31.18
2023-05-01T14:42:08.648Z,31.78
2023-05-01T14:44:40.166Z,30.91
2023-05-01T14:47:09.392Z,31.36
2023-05-01T14:49:36.081Z,30.70
2023-05-01T14:52:02.826Z,32.10
2023-05-01T14:54:44.933Z,31.95
2023-05-01T14:57:11.566Z,31.83
2023-05-01T14:59:38.386Z,33.37
2023-05-01T15:02:05.014Z,30.92
2023-05-01T15:04:31.882Z,31.73
2023-05-01T15:06:58.592Z,32.65
2023-05-01T15:09:25.115Z,32.36
2023-05-01T15:11:51.831Z,32.40
2023-05-01T15:14:18.481Z,31.84
2023-05-01T15:16:45.158Z,32.46
2023-05-01T15:19:11.720Z,31.66
2023-05-01T15:21:38.314Z,32.71
2023-05-01T15:24:04.937Z,32.61
2023-05-01T15:26:31.687Z,32.93
2023-05-01T15:28:58.586Z,33.18
2023-05-01T15:31:25.391Z,32.78
2023-05-01T15:33:51.982Z,32.78
2023-05-01T15:36:18.720Z,32.76
2023-05-01T15:38:46.691Z,32.76
2023-05-01T15:41:13.381Z,33.20
2023-05-01T15:43:40.951Z,32.78
2023-05-01T15:46:07.594Z,33.81
2023-05-01T15:48:34.292Z,33.79
2023-05-01T15:51:00.927Z,35.32
2023-05-01T15:53:27.712Z,36.20
2023-05-01T15:55:58.349Z,33.81
2023-05-01T15:58:24.968Z,34.70
2023-05-01T16:00:51.744Z,33.97
2023-05-01T16:03:18.741Z,34.05
2023-05-01T16:05:49.323Z,34.34
2023-05-01T16:08:17.374Z,34.25
2023-05-01T16:10:44.026Z,35.37
2023-05-01T16:13:11.184Z,34.88
2023-05-01T16:15:38.114Z,34.73
2023-05-01T16:18:05.194Z,34.53
2023-05-01T16:20:43.196Z,33.97
2023-05-01T16:23:11.377Z,34.63
2023-05-01T16:25:42.445Z,34.85
2023-05-01T16:28:09.336Z,35.47
2023-05-01T16:30:40.260Z,35.54
2023-05-01T16:33:18.262Z,34.57
2023-05-01T16:35:48.471Z,35.55
2023-05-01T16:38:15.894Z,34.48
2023-05-01T16:40:43.998Z,34.77
2023-05-01T16:43:11.218Z,34.70
2023-05-01T16:45:38.830Z,35.15
2023-05-01T16:48:06.038Z,36.05
2023-05-01T16:50:33.890Z,34.49
2023-05-01T16:53:00.862Z,34.93
2023-05-01T16:55:27.944Z,34.46
2023-05-01T16:57:54.553Z,36.83
2023-05-01T17:00:21.235Z,35.78
2023-05-01T17:02:49.812Z,36.28
2023-05-01T17:05:16.574Z,36.92
2023-05-01T17:07:43.195Z,35.72
2023-05-01T17:10:10.654Z,36.57
2023-05-01T17:12:37.446Z,38.37
2023-05-01T17:15:04.717Z,38.56
2023-05-01T17:17:31.275Z,39.91
2023-05-01T17:19:58.002Z,37.41
2023-05-01T17:22:25.825Z,39.79
2023-05-01T17:24:53.290Z,41.44
2023-05-01T17:27:19.960Z,40.55
2023-05-01T17:29:46.676Z,42.41
2023-05-01T17:32:16.025Z,43.27
2023-05-01T17:34:52.651Z,42.96
2023-05-01T17:37:19.231Z,43.52
2023-05-01T17:39:45.954Z,44.93
2023-05-01T17:42:12.500Z,44.44
2023-05-01T17:44:39.101Z,44.92
2023-05-01T17:47:05.685Z,45.73
2023-05-01T17:49:33.044Z,46.34
2023-05-01T17:51:59.734Z,47.20
2023-05-01T17:54:26.396Z,47.84
2023-05-01T17:56:53.051Z,47.94
2023-05-01T17:59:19.682Z,49.36
2023-05-01T18:01:46.346Z,48.75
2023-05-01T18:04:13.173Z,50.52
2023-05-01T18:06:41.434Z,51.51
2023-05-01T18:09:08.832Z,52.76
2023-05-01T18:11:35.395Z,54.06
2023-05-01T18:14:02.534Z,55.29
2023-05-01T18:16:29.182Z,55.10
2023-05-01T18:18:58.030Z,56.39
2023-05-01T18:21:25.249Z,56.86
2023-05-01T18:23:54.649Z,56.79
2023-05-01T18:26:21.716Z,57.63
2023-05-01T18:28:48.408Z,57.54
2023-05-01T18:31:15.752Z,57.29
2023-05-01T18:33:42.532Z,55.84
2023-05-01T18:36:10.614Z,56.84
2023-05-01T18:38:37.262Z,57.33
2023-05-01T18:41:04.204Z,56.41
2023-05-01T18:43:31.724Z,56.58
2023-05-01T18:45:59.039Z,56.73
2023-05-01T18:48:25.611Z,57.71
2023-05-01T18:51:07.101Z,58.65
2023-05-01T18:53:35.593Z,59.79
2023-05-01T18:56:02.214Z,59.59
2023-05-01T18:58:28.898Z,59.99
2023-05-01T19:00:55.716Z,59.99
2023-05-01T19:03:22.361Z,60.84
2023-05-01T19:05:49.220Z,61.56
2023-05-01T19:08:15.865Z,62.54
2023-05-01T19:10:42.483Z,63.55
2023-05-01T19:13:09.099Z,63.05
2023-05-01T19:15:36.280Z,64.01
2023-05-01T19:18:03.047Z,64.24
2023-05-01T19:20:29.721Z,64.15
2023-05-01T19:22:56.402Z,63.98
2023-05-01T19:25:24.095Z,63.64
2023-05-01T19:27:51.316Z,64.07
2023-05-01T19:30:17.907Z,65.55
2023-05-01T19:32:45.348Z,66.31
2023-05-01T19:35:11.992Z,66.54
2023-05-01T19:37:39.734Z,65.97
2023-05-01T19:40:07.292Z,64.51
2023-05-01T19:42:33.971Z,64.10
2023-05-01T19:45:00.611Z,64.61
2023-05-01T19:47:27.281Z,64.33
2023-05-01T19:49:53.972Z,65.31
2023-05-01T19:52:21.123Z,66.29
2023-05-01T19:54:47.747Z,67.03
2023-05-01T19:57:14.325Z,66.63
2023-05-01T19:59:42.601Z,67.67
2023-05-01T20:02:09.322Z,68.06
2023-05-01T20:04:36.074Z,68.18
2023-05-01T20:07:04.533Z,68.41
2023-05-01T20:09:31.640Z,68.53
2023-05-01T20:11:58.245Z,68.72
2023-05-01T20:14:24.832Z,69.31
2023-05-01T20:16:52.970Z,69.20
2023-05-01T20:19:19.903Z,69.22
2023-05-01T20:21:46.727Z,68.96
2023-05-01T20:24:13.252Z,68.15
2023-05-01T20:26:40.034Z,68.51
2023-05-01T20:29:06.596Z,68.73
2023-05-01T20:31:34.479Z,68.95
2023-05-01T20:34:01.239Z,68.40
2023-05-01T20:36:27.851Z,68.34
2023-05-01T20:38:57.611Z,69.19
2023-05-01T20:41:25.322Z,70.08
2023-05-01T20:43:52.438Z,70.27
2023-05-01T20:46:19.798Z,69.79
2023-05-01T20:48:47.346Z,69.84
2023-05-01T20:51:15.441Z,69.99
2023-05-01T20:53:42.066Z,70.00
2023-05-01T20:56:08.825Z,69.94
2023-05-01T20:58:36.128Z,69.84
2023-05-01T21:01:03.067Z,69.42
2023-05-01T21:03:29.844Z,70.06
2023-05-01T21:06:00.512Z,71.23
2023-05-01T21:08:27.968Z,71.07
2023-05-01T21:10:54.885Z,70.94
2023-05-01T21:13:22.678Z,71.29
2023-05-01T21:15:49.406Z,71.22
2023-05-01T21:18:17.392Z,71.29
2023-05-01T21:20:46.141Z,71.96
2023-05-01T21:23:15.783Z,70.94
2023-05-01T21:25:42.768Z,71.04
2023-05-01T21:28:15.648Z,70.94
2023-05-01T21:30:42.682Z,71.29
2023-05-01T21:33:13.313Z,70.65
2023-05-01T21:35:46.268Z,70.77
2023-05-01T21:38:12.940Z,71.30
2023-05-01T21:40:43.097Z,71.51
2023-05-01T21:43:10.074Z,71.52
2023-05-01T21:45:40.325Z,72.00
2023-05-01T21:48:08.872Z,71.82
2023-05-01T21:50:38.116Z,72.12
2023-05-01T21:53:06.776Z,71.94
2023-05-01T21:55:33.647Z,72.55
2023-05-01T21:58:00.750Z,71.87
2023-05-01T22:00:29.790Z,72.41
2023-05-01T22:02:56.569Z,72.87
2023-05-01T22:05:23.351Z,73.18
2023-05-01T22:07:51.995Z,73.04
2023-05-01T22:10:19.481Z,72.54
2023-05-01T22:12:48.807Z,73.89
2023-05-01T22:15:15.972Z,73.60
2023-05-01T22:17:42.851Z,73.94
2023-05-01T22:20:10.025Z,69.20
2023-05-01T22:22:38.783Z,71.45
2023-05-01T22:25:06.471Z,71.06
2023-05-01T22:27:33.824Z,71.84
2023-05-01T22:30:01.095Z,71.33
2023-05-01T22:32:28.471Z,70.67
2023-05-01T22:34:55.490Z,71.55
2023-05-01T22:37:22.160Z,71.37
2023-05-01T22:39:48.748Z,70.50
2023-05-01T22:42:15.318Z,64.79
2023-05-01T22:44:41.864Z,60.25
2023-05-01T22:47:08.493Z,63.32
2023-05-01T22:49:35.408Z,65.24
2023-05-01T22:52:02.767Z,63.39
2023-05-01T22:54:29.362Z,64.88
2023-05-01T22:56:56.184Z,65.71
2023-05-01T22:59:22.899Z,66.79
2023-05-01T23:01:49.632Z,66.97
2023-05-01T23:04:16.555Z,66.78
2023-05-01T23:06:44.176Z,66.54
2023-05-01T23:09:10.963Z,66.98
2023-05-01T23:11:40.403Z,67.30
2023-05-01T23:14:07.331Z,66.97
2023-05-01T23:16:41.690Z,68.31
2023-05-01T23:19:24.915Z,67.33
2023-05-01T23:22:03.943Z,62.99
2023-05-01T23:24:40.615Z,63.07
2023-05-01T23:27:08.263Z,63.54
2023-05-01T23:29:35.627Z,65.65
2023-05-01T23:32:02.466Z,63.79
2023-05-01T23:34:29.125Z,64.96
2023-05-01T23:36:55.741Z,63.34
2023-05-01T23:39:22.259Z,64.53
2023-05-01T23:41:50.423Z,66.06
2023-05-01T23:44:17.120Z,66.89
2023-05-01T23:46:43.797Z,63.95
2023-05-01T23:49:10.601Z,68.88
2023-05-01T23:51:37.287Z,68.26
2023-05-01T23:54:04.310Z,68.06
2023-05-01T23:56:31.382Z,68.44
2023-05-01T23:58:57.907Z,63.59
